createdAt,value
2019-03-08T00:00:33.835Z,6.50
2019-03-08T00:03:04.608Z,6.50
2019-03-08T00:05:33.773Z,6.50
2019-03-08T00:08:02.972Z,6.50
2019-03-08T00:10:32.318Z,6.50
2019-03-08T00:13:05.359Z,6.50
2019-03-08T00:15:34.658Z,6.50
2019-03-08T00:18:07.447Z,6.50
2019-03-08T00:20:36.645Z,6.50
2019-03-08T00:23:06.859Z,6.50
2019-03-08T00:25:35.888Z,6.50
2019-03-08T00:28:04.931Z,6.50
2019-03-08T00:30:34.587Z,6.40
2019-03-08T00:33:03.487Z,6.40
2019-03-08T00:35:32.393Z,6.40
2019-03-08T00:38:02.799Z,6.40
2019-03-08T00:40:31.887Z,6.40
2019-03-08T00:43:01.053Z,6.40
2019-03-08T00:45:30.307Z,6.30
2019-03-08T00:48:00.171Z,6.30
2019-03-08T00:50:30.193Z,6.30
2019-03-08T00:52:59.396Z,6.30
2019-03-08T00:55:28.896Z,6.30
2019-03-08T00:57:58.496Z,6.30
2019-03-08T01:00:27.698Z,6.20
2019-03-08T01:02:56.796Z,6.20
2019-03-08T01:05:26.007Z,6.20
2019-03-08T01:07:55.383Z,6.20
2019-03-08T01:10:24.327Z,6.20
2019-03-08T01:12:53.423Z,6.20
2019-03-08T01:15:22.701Z,6.20
2019-03-08T01:17:52.321Z,6.30
2019-03-08T01:20:21.290Z,6.30
2019-03-08T01:22:50.619Z,6.30
2019-03-08T01:25:21.512Z,6.30
2019-03-08T01:28:04.863Z,6.30
2019-03-08T01:30:34.275Z,6.30
2019-03-08T01:33:05.087Z,6.30
2019-03-08T01:35:34.395Z,6.30
2019-03-08T01:38:04.809Z,6.20
2019-03-08T01:40:33.672Z,6.20
2019-03-08T01:43:03.643Z,6.30
2019-03-08T01:45:32.923Z,6.30
2019-03-08T01:48:04.881Z,6.20
2019-03-08T01:50:34.400Z,6.20
2019-03-08T01:53:04.639Z,6.10
2019-03-08T01:55:33.831Z,6.10
2019-03-08T01:58:02.808Z,6.10
2019-03-08T02:00:32.047Z,6.10
2019-03-08T02:03:03.781Z,6.10
2019-03-08T02:05:33.073Z,6.20
2019-03-08T02:08:02.468Z,6.20
2019-03-08T02:10:33.229Z,6.20
2019-03-08T02:13:04.528Z,6.30
2019-03-08T02:15:34.044Z,6.30
2019-03-08T02:18:03.359Z,6.30
2019-03-08T02:20:32.584Z,6.30
2019-03-08T02:23:04.911Z,6.30
2019-03-08T02:25:33.873Z,6.30
2019-03-08T02:28:04.850Z,6.30
2019-03-08T02:30:33.820Z,6.30
2019-03-08T02:33:03.046Z,6.30
2019-03-08T02:35:32.540Z,6.30
2019-03-08T02:38:05.020Z,6.30
2019-03-08T02:40:35.737Z,6.30
2019-03-08T02:43:06.752Z,6.30
2019-03-08T02:45:36.331Z,6.20
2019-03-08T02:48:05.413Z,6.20
2019-03-08T02:50:34.188Z,6.30
2019-03-08T02:53:04.846Z,6.20
2019-03-08T02:55:34.839Z,6.20
2019-03-08T02:58:04.664Z,6.20
2019-03-08T03:00:38.344Z,6.20
2019-03-08T03:03:07.955Z,6.20
2019-03-08T03:05:37.565Z,6.20
2019-03-08T03:08:07.576Z,6.20
2019-03-08T03:10:36.451Z,6.10
2019-03-08T03:13:06.615Z,6.10
2019-03-08T03:15:36.594Z,6.10
2019-03-08T03:18:05.838Z,6.10
2019-03-08T03:20:35.099Z,6.10
2019-03-08T03:23:04.717Z,6.10
2019-03-08T03:25:34.320Z,6.10
2019-03-08T03:28:03.475Z,6.10
2019-03-08T03:30:33.287Z,6.00
2019-03-08T03:33:02.157Z,6.00
2019-03-08T03:35:31.824Z,6.00
2019-03-08T03:38:00.611Z,6.00
2019-03-08T03:40:29.823Z,6.00
2019-03-08T03:42:58.752Z,6.00
2019-03-08T03:45:28.043Z,6.00
2019-03-08T03:47:57.529Z,5.90
2019-03-08T03:50:26.696Z,5.90
2019-03-08T03:52:56.340Z,5.90
2019-03-08T03:55:25.456Z,5.90
2019-03-08T03:57:55.015Z,5.80
2019-03-08T04:00:24.664Z,5.80
2019-03-08T04:02:53.943Z,5.80
2019-03-08T04:05:23.172Z,5.80
2019-03-08T04:07:52.411Z,5.90
2019-03-08T04:10:21.279Z,5.80
2019-03-08T04:12:50.180Z,5.80
2019-03-08T04:15:19.804Z,5.90
2019-03-08T04:17:49.046Z,5.80
2019-03-08T04:20:18.299Z,5.80
2019-03-08T04:22:48.048Z,5.70
2019-03-08T04:25:17.728Z,5.70
2019-03-08T04:27:46.919Z,5.80
2019-03-08T04:30:16.425Z,5.80
2019-03-08T04:32:45.401Z,5.80
2019-03-08T04:35:15.027Z,5.80
2019-03-08T04:37:44.649Z,5.80
2019-03-08T04:40:14.187Z,5.80
2019-03-08T04:42:43.148Z,5.80
2019-03-08T04:45:12.605Z,5.80
2019-03-08T04:47:42.172Z,5.90
2019-03-08T04:50:11.686Z,5.90
2019-03-08T04:52:41.148Z,5.80
2019-03-08T04:55:12.280Z,5.80
2019-03-08T04:57:41.120Z,5.90
2019-03-08T05:00:11.359Z,5.90
2019-03-08T05:02:40.771Z,5.90
2019-03-08T05:05:09.944Z,5.90
2019-03-08T05:07:39.087Z,5.90
2019-03-08T05:10:10.011Z,5.90
2019-03-08T05:12:39.981Z,6.00
2019-03-08T05:15:08.878Z,6.00
2019-03-08T05:17:38.603Z,6.00
2019-03-08T05:20:07.716Z,6.00
2019-03-08T05:22:36.608Z,6.00
2019-03-08T05:25:06.465Z,6.00
2019-03-08T05:27:35.551Z,6.10
2019-03-08T05:30:04.980Z,6.10
2019-03-08T05:32:34.428Z,6.10
2019-03-08T05:35:04.680Z,6.10
2019-03-08T05:37:34.419Z,6.20
2019-03-08T05:40:03.690Z,6.20
2019-03-08T05:42:33.444Z,6.20
2019-03-08T05:45:02.995Z,6.20
2019-03-08T05:47:32.112Z,6.20
2019-03-08T05:50:01.944Z,6.30
2019-03-08T05:52:31.635Z,6.20
2019-03-08T05:55:04.540Z,6.20
2019-03-08T05:57:33.407Z,6.20
2019-03-08T06:00:03.330Z,6.20
2019-03-08T06:02:32.211Z,6.20
2019-03-08T06:05:04.993Z,6.30
2019-03-08T06:07:34.391Z,6.30
2019-03-08T06:10:07.527Z,6.30
2019-03-08T06:12:36.685Z,6.30
2019-03-08T06:15:07.720Z,6.40
2019-03-08T06:17:37.123Z,6.40
2019-03-08T06:20:06.511Z,6.40
2019-03-08T06:22:36.440Z,6.40
2019-03-08T06:25:05.842Z,6.40
2019-03-08T06:27:35.007Z,6.30
2019-03-08T06:30:04.644Z,6.40
2019-03-08T06:32:33.823Z,6.30
2019-03-08T06:35:05.523Z,6.30
2019-03-08T06:37:34.444Z,6.20
2019-03-08T06:40:03.611Z,6.20
2019-03-08T06:42:33.005Z,6.20
2019-03-08T06:45:01.880Z,6.10
2019-03-08T06:47:31.555Z,6.10
2019-03-08T06:50:01.215Z,6.10
2019-03-08T06:52:30.739Z,6.20
2019-03-08T06:55:00.341Z,6.20
2019-03-08T06:57:29.815Z,6.20
2019-03-08T07:00:05.048Z,6.30
2019-03-08T07:02:34.567Z,6.40
2019-03-08T07:05:03.455Z,6.40
2019-03-08T07:07:33.165Z,6.60
2019-03-08T07:10:01.975Z,6.70
2019-03-08T07:12:31.150Z,6.90
2019-03-08T07:15:00.326Z,6.90
2019-03-08T07:17:29.540Z,6.90
2019-03-08T07:20:14.403Z,6.80
2019-03-08T07:22:50.464Z,6.70
2019-03-08T07:25:36.748Z,6.80
2019-03-08T07:28:33.816Z,6.80
2019-03-08T07:31:20.751Z,6.70
2019-03-08T07:34:11.883Z,6.50
2019-03-08T07:36:55.020Z,6.40
2019-03-08T07:39:35.839Z,6.30
2019-03-08T07:42:17.112Z,6.30
2019-03-08T07:45:10.479Z,6.30
2019-03-08T07:48:01.560Z,6.20
2019-03-08T07:50:52.871Z,6.10
2019-03-08T07:53:31.000Z,5.90
2019-03-08T07:56:16.397Z,5.80
2019-03-08T07:59:06.676Z,5.90
2019-03-08T08:01:42.732Z,5.80
2019-03-08T08:04:30.527Z,5.60
2019-03-08T08:07:07.450Z,5.60
2019-03-08T08:09:55.643Z,5.50
2019-03-08T08:12:32.169Z,5.40
2019-03-08T08:15:20.623Z,5.50
2019-03-08T08:17:57.901Z,5.50
2019-03-08T08:20:50.540Z,5.60
2019-03-08T08:23:34.311Z,5.60
2019-03-08T08:26:19.368Z,5.50
2019-03-08T08:29:16.459Z,5.60
2019-03-08T08:32:03.524Z,5.60
2019-03-08T08:34:39.596Z,5.60
2019-03-08T08:37:31.080Z,5.60
2019-03-08T08:40:18.183Z,5.60
2019-03-08T08:43:02.141Z,5.60
2019-03-08T08:45:56.683Z,5.60
2019-03-08T08:48:39.236Z,5.50
2019-03-08T08:51:37.126Z,5.60
2019-03-08T08:54:28.159Z,5.60
2019-03-08T08:57:22.563Z,5.60
2019-03-08T09:00:06.776Z,5.70
2019-03-08T09:02:51.756Z,5.80
2019-03-08T09:05:38.379Z,5.70
2019-03-08T09:08:25.387Z,5.70
2019-03-08T09:10:59.895Z,5.60
2019-03-08T09:13:47.434Z,5.50
2019-03-08T09:16:34.278Z,5.60
2019-03-08T09:19:22.483Z,5.50
2019-03-08T09:21:58.487Z,5.50
2019-03-08T09:24:42.480Z,5.50
2019-03-08T09:27:20.255Z,5.60
2019-03-08T09:30:05.812Z,5.50
2019-03-08T09:32:58.951Z,5.60
2019-03-08T09:35:38.059Z,5.50
2019-03-08T09:38:29.383Z,5.50
2019-03-08T09:41:23.457Z,5.50
2019-03-08T09:44:14.699Z,5.60
2019-03-08T09:47:09.159Z,5.60
2019-03-08T09:50:15.529Z,5.70
2019-03-08T09:52:58.771Z,5.80
2019-03-08T09:56:06.144Z,5.80
2019-03-08T09:58:56.844Z,5.60
2019-03-08T10:01:51.079Z,5.60
2019-03-08T10:04:38.149Z,5.60
2019-03-08T10:07:26.503Z,5.60
2019-03-08T10:10:08.871Z,5.60
2019-03-08T10:13:06.668Z,5.70
2019-03-08T10:15:52.778Z,5.80
2019-03-08T10:18:31.487Z,5.90
2019-03-08T10:21:12.267Z,6.20
2019-03-08T10:24:12.844Z,6.30
2019-03-08T10:26:59.296Z,6.40
2019-03-08T10:29:50.308Z,6.50
2019-03-08T10:32:41.815Z,6.50
2019-03-08T10:35:29.560Z,6.60
2019-03-08T10:38:22.941Z,6.80
2019-03-08T10:41:10.047Z,7.00
2019-03-08T10:43:56.303Z,7.20
2019-03-08T10:46:43.765Z,6.70
2019-03-08T10:49:32.091Z,6.20
2019-03-08T10:52:23.000Z,5.80
2019-03-08T10:55:16.832Z,5.60
2019-03-08T10:58:00.424Z,5.50
2019-03-08T11:00:48.161Z,5.60
2019-03-08T11:03:34.879Z,5.60
2019-03-08T11:06:19.198Z,6.10
2019-03-08T11:09:04.524Z,6.20
2019-03-08T11:11:50.592Z,6.10
2019-03-08T11:14:29.296Z,5.80
2019-03-08T11:17:17.457Z,5.50
2019-03-08T11:20:16.450Z,5.50
2019-03-08T11:22:56.059Z,5.80
2019-03-08T11:25:44.767Z,6.10
2019-03-08T11:28:26.742Z,6.40
2019-03-08T11:31:11.813Z,7.00
2019-03-08T11:34:00.487Z,7.80
2019-03-08T11:36:52.708Z,8.40
2019-03-08T11:39:39.658Z,9.30
2019-03-08T11:42:22.305Z,9.90
2019-03-08T11:45:04.660Z,10.90
2019-03-08T11:47:44.994Z,11.40
2019-03-08T11:50:30.105Z,11.50
2019-03-08T11:53:17.005Z,10.50
2019-03-08T11:55:53.927Z,9.80
2019-03-08T11:58:40.587Z,9.40
2019-03-08T12:01:18.159Z,9.70
2019-03-08T12:04:05.691Z,9.50
2019-03-08T12:06:57.824Z,9.30
2019-03-08T12:09:58.171Z,9.50
2019-03-08T12:12:41.793Z,10.40
2019-03-08T12:15:30.242Z,11.20
2019-03-08T12:18:17.771Z,12.20
2019-03-08T12:20:53.311Z,12.50
2019-03-08T12:23:44.420Z,12.50
2019-03-08T12:26:38.707Z,12.50
2019-03-08T12:29:21.815Z,12.10
2019-03-08T12:32:08.668Z,11.90
2019-03-08T12:34:49.911Z,11.90
2019-03-08T12:37:30.384Z,11.80
2019-03-08T12:40:25.186Z,11.60
2019-03-08T12:43:07.976Z,11.80
2019-03-08T12:45:48.659Z,12.10
2019-03-08T12:48:43.415Z,12.40
2019-03-08T12:51:32.115Z,12.10
2019-03-08T12:54:32.419Z,12.20
2019-03-08T12:57:18.427Z,12.70
2019-03-08T12:59:55.521Z,12.60
2019-03-08T13:02:52.824Z,13.10
2019-03-08T13:05:35.196Z,12.90
2019-03-08T13:08:22.096Z,12.10
2019-03-08T13:10:50.991Z,11.80
2019-03-08T13:13:20.388Z,12.50
2019-03-08T13:15:49.995Z,12.60
2019-03-08T13:18:19.013Z,12.90
2019-03-08T13:20:48.531Z,13.50
2019-03-08T13:23:17.800Z,13.70
2019-03-08T13:25:46.936Z,12.60
2019-03-08T13:28:15.910Z,12.70
2019-03-08T13:30:44.869Z,13.00
2019-03-08T13:33:14.317Z,12.80
2019-03-08T13:35:43.895Z,13.20
2019-03-08T13:38:13.081Z,13.30
2019-03-08T13:40:42.598Z,13.10
2019-03-08T13:43:11.720Z,12.80
2019-03-08T13:45:41.337Z,13.40
2019-03-08T13:48:10.831Z,13.10
2019-03-08T13:50:39.832Z,13.80
2019-03-08T13:53:09.579Z,15.10
2019-03-08T13:55:39.966Z,14.70
2019-03-08T13:58:08.861Z,14.30
2019-03-08T14:00:37.747Z,14.50
2019-03-08T14:03:07.011Z,13.80
2019-03-08T14:05:36.512Z,13.10
2019-03-08T14:08:05.435Z,13.00
2019-03-08T14:10:34.679Z,13.50
2019-03-08T14:13:04.542Z,13.80
2019-03-08T14:15:34.124Z,15.10
2019-03-08T14:18:04.020Z,15.50
2019-03-08T14:20:33.132Z,15.30
2019-03-08T14:23:02.642Z,15.20
2019-03-08T14:25:32.143Z,13.80
2019-03-08T14:28:01.303Z,12.90
2019-03-08T14:30:36.083Z,12.70
2019-03-08T14:33:04.653Z,13.30
2019-03-08T14:35:33.440Z,13.70
2019-03-08T14:38:02.847Z,13.60
2019-03-08T14:40:47.075Z,12.80
2019-03-08T14:43:31.547Z,11.90
2019-03-08T14:46:17.168Z,12.10
2019-03-08T14:48:46.349Z,11.50
2019-03-08T14:51:16.000Z,11.70
2019-03-08T14:53:45.492Z,11.50
2019-03-08T14:56:14.755Z,11.40
2019-03-08T14:58:44.078Z,11.90
2019-03-08T15:01:13.633Z,12.90
2019-03-08T15:03:43.864Z,14.10
2019-03-08T15:06:13.381Z,14.70
2019-03-08T15:08:42.707Z,15.10
2019-03-08T15:11:11.489Z,15.70
2019-03-08T15:13:40.924Z,15.10
2019-03-08T15:16:10.093Z,13.80
2019-03-08T15:18:39.679Z,13.10
2019-03-08T15:21:09.076Z,13.00
2019-03-08T15:23:38.200Z,12.80
2019-03-08T15:26:07.721Z,12.10
2019-03-08T15:28:36.623Z,11.40
2019-03-08T15:31:05.871Z,11.40
2019-03-08T15:33:34.964Z,11.70
2019-03-08T15:36:04.056Z,11.30
2019-03-08T15:38:33.276Z,10.70
2019-03-08T15:41:02.987Z,10.60
2019-03-08T15:43:31.964Z,10.40
2019-03-08T15:46:04.024Z,10.20
2019-03-08T15:48:33.428Z,10.10
2019-03-08T15:51:03.047Z,10.20
2019-03-08T15:53:31.979Z,10.10
2019-03-08T15:56:01.768Z,10.00
2019-03-08T15:58:30.555Z,9.80
2019-03-08T16:01:00.032Z,9.70
2019-03-08T16:03:30.090Z,9.70
2019-03-08T16:06:03.054Z,9.70
2019-03-08T16:08:31.499Z,9.70
2019-03-08T16:11:00.695Z,9.70
2019-03-08T16:13:30.222Z,9.40
2019-03-08T16:16:00.541Z,9.30
2019-03-08T16:18:29.736Z,9.10
2019-03-08T16:20:59.507Z,9.10
2019-03-08T16:23:29.053Z,8.90
2019-03-08T16:25:58.379Z,8.90
2019-03-08T16:28:27.744Z,8.80
2019-03-08T16:31:21.775Z,8.70
2019-03-08T16:33:51.759Z,8.80
2019-03-08T16:36:34.863Z,8.60
2019-03-08T16:39:26.691Z,8.60
2019-03-08T16:42:26.825Z,8.30
2019-03-08T16:45:17.625Z,8.00
2019-03-08T16:48:07.360Z,7.60
2019-03-08T16:50:46.948Z,7.30
2019-03-08T16:53:26.087Z,7.10
2019-03-08T16:56:00.651Z,6.90
2019-03-08T16:58:53.379Z,6.90
2019-03-08T17:01:43.135Z,7.00
2019-03-08T17:04:17.563Z,7.10
2019-03-08T17:06:52.053Z,7.10
2019-03-08T17:09:40.457Z,7.00
2019-03-08T17:12:35.230Z,6.90
2019-03-08T17:15:22.446Z,6.90
2019-03-08T17:18:13.935Z,6.80
2019-03-08T17:20:54.124Z,6.80
2019-03-08T17:23:33.548Z,6.90
2019-03-08T17:26:10.552Z,6.90
2019-03-08T17:28:58.476Z,6.90
2019-03-08T17:31:58.815Z,6.90
2019-03-08T17:34:45.782Z,6.80
2019-03-08T17:37:39.971Z,6.90
2019-03-08T17:40:28.062Z,7.00
2019-03-08T17:43:14.988Z,7.00
2019-03-08T17:45:55.195Z,7.00
2019-03-08T17:48:51.163Z,7.00
2019-03-08T17:51:41.200Z,7.10
2019-03-08T17:54:38.889Z,7.20
2019-03-08T17:57:29.935Z,7.10
2019-03-08T18:00:27.568Z,7.10
2019-03-08T18:03:16.011Z,7.30
2019-03-08T18:05:57.315Z,7.20
2019-03-08T18:08:54.712Z,6.80
2019-03-08T18:11:44.522Z,6.40
2019-03-08T18:14:24.984Z,6.00
2019-03-08T18:16:59.519Z,5.60
2019-03-08T18:19:36.405Z,5.30
2019-03-08T18:22:13.594Z,5.20
2019-03-08T18:25:05.739Z,5.00
2019-03-08T18:28:06.716Z,5.00
2019-03-08T18:30:55.108Z,5.00
2019-03-08T18:33:42.327Z,5.10
2019-03-08T18:36:25.955Z,5.10
2019-03-08T18:39:12.780Z,5.10
2019-03-08T18:41:53.753Z,5.00
2019-03-08T18:44:51.212Z,5.00
2019-03-08T18:47:27.108Z,5.10
2019-03-08T18:50:18.608Z,5.10
2019-03-08T18:53:12.363Z,5.10
2019-03-08T18:56:03.176Z,5.20
2019-03-08T18:58:40.966Z,5.30
2019-03-08T19:01:27.915Z,5.40
2019-03-08T19:04:15.092Z,5.50
2019-03-08T19:07:03.738Z,5.50
2019-03-08T19:09:40.303Z,5.50
2019-03-08T19:12:31.948Z,5.60
2019-03-08T19:15:19.880Z,5.60
2019-03-08T19:18:05.676Z,5.60
2019-03-08T19:21:05.795Z,5.60
2019-03-08T19:23:57.316Z,5.70
2019-03-08T19:26:42.075Z,5.70
2019-03-08T19:29:21.543Z,5.70
2019-03-08T19:32:09.464Z,5.80
2019-03-08T19:34:54.436Z,5.80
2019-03-08T19:37:41.639Z,5.90
2019-03-08T19:40:19.335Z,5.90
2019-03-08T19:43:17.275Z,5.90
2019-03-08T19:46:04.251Z,5.90
2019-03-08T19:48:42.123Z,5.90
2019-03-08T19:51:40.088Z,6.00
2019-03-08T19:54:13.900Z,6.00
2019-03-08T19:56:48.491Z,6.00
2019-03-08T19:59:26.840Z,6.10
2019-03-08T20:02:21.221Z,6.10
2019-03-08T20:05:14.769Z,6.20
2019-03-08T20:08:11.019Z,6.20
2019-03-08T20:11:04.061Z,6.20
2019-03-08T20:14:02.156Z,6.20
2019-03-08T20:16:49.298Z,6.30
2019-03-08T20:19:27.171Z,6.30
2019-03-08T20:22:04.876Z,6.40
2019-03-08T20:24:59.464Z,6.50
2019-03-08T20:28:06.193Z,6.40
2019-03-08T20:30:54.187Z,6.50
2019-03-08T20:33:42.049Z,6.50
2019-03-08T20:36:42.551Z,6.50
2019-03-08T20:39:29.272Z,6.60
2019-03-08T20:42:16.209Z,6.60
2019-03-08T20:45:03.689Z,6.60
2019-03-08T20:47:34.228Z,6.60
2019-03-08T20:50:03.455Z,6.50
2019-03-08T20:52:33.055Z,6.60
2019-03-08T20:55:02.111Z,6.60
2019-03-08T20:57:31.007Z,6.60
2019-03-08T21:00:00.352Z,6.60
2019-03-08T21:02:29.929Z,6.70
2019-03-08T21:04:59.048Z,6.60
2019-03-08T21:07:28.324Z,6.70
2019-03-08T21:09:57.620Z,6.70
2019-03-08T21:12:26.823Z,6.70
2019-03-08T21:14:55.659Z,6.80
2019-03-08T21:17:24.836Z,6.80
2019-03-08T21:19:54.087Z,6.70
2019-03-08T21:22:23.772Z,6.80
2019-03-08T21:24:53.323Z,6.80
2019-03-08T21:27:22.516Z,6.80
2019-03-08T21:29:51.948Z,6.70
2019-03-08T21:32:21.643Z,6.70
2019-03-08T21:34:50.836Z,6.70
2019-03-08T21:37:19.959Z,6.70
2019-03-08T21:39:49.425Z,6.80
2019-03-08T21:42:19.109Z,6.70
2019-03-08T21:44:47.911Z,6.70
2019-03-08T21:47:17.136Z,6.60
2019-03-08T21:49:46.421Z,6.60
2019-03-08T21:52:15.523Z,6.60
2019-03-08T21:54:45.029Z,6.50
2019-03-08T21:57:14.380Z,6.50
2019-03-08T21:59:43.934Z,6.50
2019-03-08T22:02:13.343Z,6.50
2019-03-08T22:04:49.705Z,6.50
2019-03-08T22:07:18.701Z,6.50
2019-03-08T22:10:06.024Z,6.50
2019-03-08T22:12:35.528Z,6.60
2019-03-08T22:15:05.762Z,6.60
2019-03-08T22:17:35.252Z,6.50
2019-03-08T22:20:05.981Z,6.50
2019-03-08T22:22:35.208Z,6.60
2019-03-08T22:25:04.211Z,6.60
2019-03-08T22:27:33.375Z,6.60
2019-03-08T22:30:03.631Z,6.60
2019-03-08T22:32:32.792Z,6.60
2019-03-08T22:35:03.653Z,6.60
2019-03-08T22:37:33.497Z,6.70
2019-03-08T22:40:03.261Z,6.70
2019-03-08T22:42:32.132Z,6.60
2019-03-08T22:45:01.641Z,6.60
2019-03-08T22:47:31.191Z,6.60
2019-03-08T22:50:00.993Z,6.50
2019-03-08T22:52:30.823Z,6.40
2019-03-08T22:54:59.644Z,6.50
2019-03-08T22:57:29.250Z,6.50
2019-03-08T22:59:58.139Z,6.50
2019-03-08T23:02:27.543Z,6.50
2019-03-08T23:04:56.835Z,6.50
2019-03-08T23:07:25.962Z,6.50
2019-03-08T23:09:55.403Z,6.60
2019-03-08T23:12:24.680Z,6.60
2019-03-08T23:14:54.516Z,6.50
2019-03-08T23:17:24.396Z,6.50
2019-03-08T23:19:53.266Z,6.50
2019-03-08T23:22:22.487Z,6.50
2019-03-08T23:24:51.659Z,6.50
2019-03-08T23:27:35.117Z,6.50
2019-03-08T23:30:26.731Z,6.50
2019-03-08T23:32:56.318Z,6.50
2019-03-08T23:35:25.431Z,6.50
2019-03-08T23:37:54.855Z,6.50
2019-03-08T23:40:24.060Z,6.50
2019-03-08T23:42:53.712Z,6.50
2019-03-08T23:45:22.864Z,6.60
2019-03-08T23:47:52.778Z,6.60
2019-03-08T23:50:21.734Z,6.60
2019-03-08T23:52:50.840Z,6.50
2019-03-08T23:55:19.924Z,6.60
2019-03-08T23:57:49.060Z,6.60
